Time;durP1;ratioP1;P1;durP2;ratioP2;P2;SDS_P1;SDS_P2;PMS_P1;PMS_P2;Temp;Humidity;BMP_temperature;BMP_pressure;BME280_temperature;BME280_humidity;BME280_pressure;Samples;Min_cycle;Max_cycle;Signal;HPM_P1;HPM_P2
2021/04/15 00:02:09;;;;;;;6.90;3.80;;;;;;;-1.70;77.02;100009.25;5108435;28;20048;-80
2021/04/15 00:04:36;;;;;;;5.10;3.40;;;;;;;-1.49;76.74;100032.97;5111936;27;20043;-80
2021/04/15 00:07:03;;;;;;;3.30;3.00;;;;;;;-1.59;76.40;100013.13;5113145;28;20087;-80
2021/04/15 00:09:30;;;;;;;15.13;6.97;;;;;;;-1.54;76.85;100025.22;5112814;27;20568;-80
2021/04/15 00:11:56;;;;;;;6.57;3.83;;;;;;;-1.64;78.13;100016.91;5109332;28;20044;-80
2021/04/15 00:14:25;;;;;;;4.57;3.33;;;;;;;-1.63;76.72;100007.94;5113257;28;20047;-79
2021/04/15 00:16:51;;;;;;;5.57;3.65;;;;;;;-1.70;77.35;100027.03;5100506;28;20484;-80
2021/04/15 00:19:19;;;;;;;5.80;3.47;;;;;;;-1.86;77.98;100019.88;5112662;28;20040;-80
2021/04/15 00:21:46;;;;;;;7.70;3.80;;;;;;;-1.81;78.37;100020.50;5102255;27;20051;-80
2021/04/15 00:24:13;;;;;;;13.27;4.33;;;;;;;-1.76;78.21;100019.38;5109901;28;20058;-80
2021/04/15 00:26:40;;;;;;;5.07;3.40;;;;;;;-1.76;77.84;100014.91;5111337;27;20059;-80
2021/04/15 00:29:07;;;;;;;5.03;3.50;;;;;;;-1.94;77.77;100016.81;5105950;28;20039;-80
2021/04/15 00:31:33;;;;;;;6.07;3.87;;;;;;;-1.83;76.64;100014.38;5107651;28;20055;-80
2021/04/15 00:33:59;;;;;;;5.03;3.50;;;;;;;-1.81;77.24;100011.63;5110373;28;20545;-80
2021/04/15 00:36:26;;;;;;;6.73;3.57;;;;;;;-2.04;78.14;100000.44;5099596;28;20043;-80
2021/04/15 00:38:54;;;;;;;7.77;3.80;;;;;;;-1.94;77.80;100003.47;5104681;28;20134;-80
2021/04/15 00:41:22;;;;;;;7.20;2.97;;;;;;;-1.99;77.82;100003.72;5105933;28;20552;-80
2021/04/15 00:43:49;;;;;;;4.30;3.23;;;;;;;-2.14;78.72;100004.53;5110471;28;20407;-80
2021/04/15 00:46:45;;;;;;;5.43;2.93;;;;;;;-2.23;79.03;99999.72;5101093;28;20044;-80
2021/04/15 00:49:13;;;;;;;4.57;3.20;;;;;;;-2.10;77.95;99989.28;5110350;27;20415;-80
2021/04/15 00:51:42;;;;;;;7.97;3.63;;;;;;;-2.09;78.39;99997.19;5112380;28;20048;-80
2021/04/15 00:54:14;;;;;;;6.05;3.35;;;;;;;-2.28;78.85;99980.47;5110101;28;20134;-80
2021/04/15 00:56:41;;;;;;;6.50;3.37;;;;;;;-2.32;78.17;99988.63;5104363;28;20047;-80
2021/04/15 00:59:08;;;;;;;7.83;3.90;;;;;;;-2.38;78.59;99985.44;5111644;28;20393;-80
2021/04/15 01:01:35;;;;;;;8.90;3.67;;;;;;;-2.45;79.42;99986.69;5104985;27;20052;-80
2021/04/15 01:04:01;;;;;;;4.57;3.50;;;;;;;-2.16;79.29;99987.78;5111980;28;20055;-80
2021/04/15 01:06:28;;;;;;;5.67;3.53;;;;;;;-2.18;78.27;99993.22;5111542;28;20429;-80
2021/04/15 01:08:54;;;;;;;4.67;3.03;;;;;;;-2.33;78.23;99986.06;5095979;28;20052;-80
2021/04/15 01:11:38;;;;;;;6.43;3.20;;;;;;;-2.41;78.82;99988.25;5113086;27;20056;-80
2021/04/15 01:14:13;;;;;;;6.50;2.90;;;;;;;-2.37;78.50;99987.16;5111169;28;20124;-80
2021/04/15 01:16:45;;;;;;;4.63;3.43;;;;;;;-2.24;78.57;99988.22;5104886;28;20220;-80
2021/04/15 01:19:39;;;;;;;5.90;3.70;;;;;;;-2.17;77.84;99989.59;5106417;28;20576;-80
2021/04/15 01:22:20;;;;;;;7.33;4.00;;;;;;;-2.26;77.23;99991.91;5101472;28;20101;-80
2021/04/15 01:24:49;;;;;;;6.10;3.73;;;;;;;-2.37;77.10;99982.69;5099778;28;20051;-80
2021/04/15 01:27:31;;;;;;;7.85;3.78;;;;;;;-2.53;77.83;100001.28;5111901;28;20051;-79
2021/04/15 01:30:13;;;;;;;6.37;3.00;;;;;;;-2.51;77.38;99999.41;5103312;28;20043;-80
2021/04/15 01:32:54;;;;;;;5.47;3.00;;;;;;;-2.72;78.27;99992.56;5098227;28;20055;-80
2021/04/15 01:35:26;;;;;;;8.17;3.70;;;;;;;-2.47;77.41;99992.09;5106533;27;20132;-80
2021/04/15 01:38:00;;;;;;;7.30;3.17;;;;;;;-2.50;77.53;99995.81;5110801;28;20111;-80
2021/04/15 01:40:30;;;;;;;4.93;3.50;;;;;;;-2.56;77.76;99992.59;5101322;27;20048;-79
2021/04/15 01:43:00;;;;;;;7.50;3.80;;;;;;;-2.68;77.22;99973.69;5090594;28;20052;-80
2021/04/15 01:45:30;;;;;;;5.83;3.60;;;;;;;-2.70;77.69;99998.66;5099322;28;20130;-80
2021/04/15 01:48:02;;;;;;;4.95;3.30;;;;;;;-2.69;78.13;100000.38;5105603;28;20487;-80
2021/04/15 01:50:33;;;;;;;4.70;3.33;;;;;;;-2.90;78.14;99970.41;5107263;28;20051;-80
2021/04/15 01:53:04;;;;;;;4.97;3.53;;;;;;;-2.99;78.94;99974.41;5108510;28;20111;-81
2021/04/15 01:55:37;;;;;;;6.57;3.40;;;;;;;-3.06;78.60;99970.34;5102956;28;20450;-81
2021/04/15 01:58:09;;;;;;;5.50;3.23;;;;;;;-2.93;78.46;99995.38;5106918;28;20062;-80
2021/04/15 02:00:41;;;;;;;7.17;3.73;;;;;;;-2.95;78.08;99989.28;5106798;28;20044;-81
2021/04/15 02:03:14;;;;;;;5.83;3.80;;;;;;;-2.95;78.55;99996.38;5108592;28;20050;-81
2021/04/15 02:05:43;;;;;;;5.70;3.10;;;;;;;-3.05;78.77;99980.91;5109621;28;20051;-80
2021/04/15 02:08:13;;;;;;;5.23;3.27;;;;;;;-2.94;78.80;99998.13;5111243;28;20048;-80
2021/04/15 02:10:44;;;;;;;4.10;2.83;;;;;;;-3.03;78.67;99991.47;5108902;28;20059;-80
2021/04/15 02:13:12;;;;;;;4.73;2.70;;;;;;;-2.98;77.87;99996.53;5110929;28;20560;-80
2021/04/15 02:15:46;;;;;;;5.00;3.40;;;;;;;-3.01;78.46;99984.28;5105121;28;20549;-81
2021/04/15 02:18:19;;;;;;;3.70;2.47;;;;;;;-3.11;77.96;99962.59;5110049;28;20416;-80
2021/04/15 02:20:50;;;;;;;3.87;2.57;;;;;;;-2.99;77.68;100000.16;5102291;28;20104;-81
2021/04/15 02:23:24;;;;;;;6.70;3.20;;;;;;;-3.25;79.09;99983.69;5105524;28;20052;-79
2021/04/15 02:25:56;;;;;;;6.40;3.07;;;;;;;-3.30;79.55;99997.22;5104192;28;20202;-80
2021/04/15 02:28:28;;;;;;;4.17;2.53;;;;;;;-3.36;79.75;99983.38;5108027;28;20048;-80
2021/04/15 02:31:04;;;;;;;5.40;2.93;;;;;;;-3.25;79.75;100000.53;5104676;28;20055;-80
2021/04/15 02:33:38;;;;;;;5.90;2.53;;;;;;;-3.25;79.72;99999.66;5109768;28;20116;-80
2021/04/15 02:36:07;;;;;;;4.77;2.90;;;;;;;-3.29;79.99;100004.28;5110080;28;20063;-80
2021/04/15 02:38:39;;;;;;;3.60;2.77;;;;;;;-3.29;80.52;100000.75;5113608;27;20059;-81
2021/04/15 02:41:08;;;;;;;5.30;2.80;;;;;;;-3.28;79.72;100006.00;5110429;28;20101;-80
2021/04/15 02:43:39;;;;;;;4.13;2.30;;;;;;;-3.26;79.36;99990.81;5109671;28;20043;-81
2021/04/15 02:46:12;;;;;;;13.07;3.30;;;;;;;-3.22;79.52;100003.03;5102673;28;20047;-81
2021/04/15 02:48:41;;;;;;;6.37;3.17;;;;;;;-3.17;79.67;100015.25;5110084;28;20051;-80
2021/04/15 02:51:13;;;;;;;4.63;2.83;;;;;;;-3.31;79.16;100008.81;5099255;27;20059;-80
2021/04/15 02:53:45;;;;;;;3.80;2.60;;;;;;;-3.35;78.62;99988.63;5110556;28;20085;-80
2021/04/15 02:56:19;;;;;;;4.70;2.70;;;;;;;-3.29;78.47;100014.91;5108432;28;20089;-80
2021/04/15 02:58:49;;;;;;;5.23;2.87;;;;;;;-3.36;78.95;100016.16;5102955;28;20044;-80
2021/04/15 03:01:20;;;;;;;4.67;2.77;;;;;;;-3.48;79.10;100006.97;5109991;28;20047;-79
2021/04/15 03:03:50;;;;;;;7.00;2.93;;;;;;;-3.64;79.15;99992.72;5109973;28;20130;-80
2021/04/15 03:06:20;;;;;;;4.53;3.00;;;;;;;-3.49;78.61;99991.97;5093166;28;20086;-80
2021/04/15 03:08:50;;;;;;;6.07;2.72;;;;;;;-3.62;79.36;99988.19;5109803;28;20043;-80
2021/04/15 03:11:21;;;;;;;3.93;2.73;;;;;;;-3.50;78.86;100003.53;5101511;28;20052;-79
2021/04/15 03:13:52;;;;;;;6.23;3.13;;;;;;;-3.54;79.25;99970.06;5108051;28;20039;-80
2021/04/15 03:16:25;;;;;;;5.77;3.27;;;;;;;-3.50;78.82;99998.22;5101414;28;20056;-80
2021/04/15 03:18:55;;;;;;;4.77;3.00;;;;;;;-3.53;78.98;100001.03;5101973;28;20043;-80
2021/04/15 03:21:24;;;;;;;6.22;3.22;;;;;;;-3.49;78.88;100005.28;5104156;28;20047;-80
2021/04/15 03:23:55;;;;;;;4.78;3.47;;;;;;;-3.49;78.76;100002.59;5112338;28;20039;-80
2021/04/15 03:26:40;;;;;;;6.37;3.07;;;;;;;-3.66;79.01;99997.25;5102179;28;20093;-80
2021/04/15 03:29:19;;;;;;;9.07;3.10;;;;;;;-3.55;78.69;100005.56;5098749;28;20044;-80
2021/04/15 03:31:52;;;;;;;7.95;3.10;;;;;;;-3.86;79.59;99980.47;5113397;28;20043;-80
2021/04/15 03:34:27;;;;;;;4.67;3.03;;;;;;;-3.72;79.81;99994.88;5106658;28;20315;-80
2021/04/15 03:36:57;;;;;;;5.60;2.80;;;;;;;-3.71;80.04;99997.47;5113291;28;20083;-81
2021/04/15 03:39:29;;;;;;;7.43;2.77;;;;;;;-3.65;80.48;100005.13;5112532;28;20043;-81
2021/04/15 03:42:02;;;;;;;5.33;3.13;;;;;;;-3.87;80.91;99991.16;5118235;27;20056;-81
2021/04/15 03:44:33;;;;;;;5.53;3.30;;;;;;;-3.62;81.41;100007.66;5101808;28;20140;-81
2021/04/15 03:47:04;;;;;;;3.73;2.87;;;;;;;-3.64;79.96;99990.06;5114578;27;20517;-81
2021/04/15 03:49:36;;;;;;;5.30;3.47;;;;;;;-3.69;80.27;99992.94;5117709;27;20048;-80
2021/04/15 03:52:06;;;;;;;9.00;4.40;;;;;;;-3.49;79.94;100013.25;5112569;28;20043;-80
2021/04/15 03:54:37;;;;;;;5.97;3.83;;;;;;;-3.49;79.56;100010.59;5113316;28;20270;-80
2021/04/15 03:57:11;;;;;;;5.20;3.53;;;;;;;-3.61;79.56;100014.69;5109242;28;20052;-78
2021/04/15 03:59:45;;;;;;;4.73;3.30;;;;;;;-3.68;79.50;100004.44;5108931;28;20046;-81
2021/04/15 04:02:16;;;;;;;5.50;3.27;;;;;;;-3.90;79.39;100005.44;5113252;28;20423;-80
2021/04/15 04:04:50;;;;;;;5.80;3.50;;;;;;;-3.95;80.76;99997.69;5111781;27;20047;-79
2021/04/15 04:07:23;;;;;;;7.07;4.20;;;;;;;-3.80;82.64;100029.78;5095080;28;20491;-81
2021/04/15 04:09:54;;;;;;;9.73;4.33;;;;;;;-3.70;81.98;100024.88;5110344;28;20075;-81
2021/04/15 04:12:26;;;;;;;11.20;3.83;;;;;;;-3.75;81.95;100020.69;5106868;28;20134;-81
2021/04/15 04:14:58;;;;;;;5.93;3.37;;;;;;;-3.88;81.72;99998.28;5101752;28;20104;-81
2021/04/15 04:17:32;;;;;;;7.57;4.40;;;;;;;-3.61;80.45;100024.47;5093085;28;20385;-81
2021/04/15 04:19:58;;;;;;;7.50;3.87;;;;;;;-3.72;80.33;99995.72;5103861;28;20067;-82
2021/04/15 04:22:38;;;;;;;8.23;4.20;;;;;;;-3.78;80.15;100004.88;5113318;28;20499;-81
2021/04/15 04:25:12;;;;;;;4.88;3.42;;;;;;;-3.86;80.41;100000.88;5106371;27;20067;-81
2021/04/15 04:27:45;;;;;;;18.27;4.30;;;;;;;-3.86;79.65;99998.22;5111827;28;20055;-81
2021/04/15 04:30:17;;;;;;;7.13;3.87;;;;;;;-3.84;80.27;100022.91;5117482;27;20062;-83
2021/04/15 04:32:46;;;;;;;5.90;3.67;;;;;;;-3.98;80.53;100013.78;5099398;28;20541;-82
2021/04/15 04:35:20;;;;;;;9.88;3.28;;;;;;;-3.85;79.83;100014.06;5112930;27;20104;-82
2021/04/15 04:37:49;;;;;;;6.17;3.30;;;;;;;-3.82;78.99;100013.94;5113924;28;20055;-82
2021/04/15 04:40:20;;;;;;;6.43;3.37;;;;;;;-3.88;78.77;100022.19;5112197;28;20078;-82
2021/04/15 04:42:52;;;;;;;4.67;3.00;;;;;;;-4.09;79.26;100024.06;5098294;28;20499;-81
2021/04/15 04:45:22;;;;;;;9.57;3.30;;;;;;;-4.15;79.36;100017.22;5104658;28;20069;-81
2021/04/15 04:47:55;;;;;;;7.45;3.33;;;;;;;-4.20;79.49;100013.03;5098422;28;20500;-81
2021/04/15 04:50:31;;;;;;;6.77;3.63;;;;;;;-3.94;79.54;100026.00;5114040;28;20472;-82
2021/04/15 04:53:00;;;;;;;6.53;3.80;;;;;;;-4.05;79.32;100019.44;5114191;28;20130;-82
2021/04/15 04:55:45;;;;;;;4.10;3.00;;;;;;;-4.01;79.08;100015.72;5097699;28;20040;-82
2021/04/15 04:58:14;;;;;;;7.80;3.93;;;;;;;-4.07;79.21;100032.81;5100987;28;20123;-82
2021/04/15 05:00:45;;;;;;;4.80;2.90;;;;;;;-4.07;79.45;100019.53;5109161;28;20047;-80
2021/04/15 05:03:18;;;;;;;6.43;3.70;;;;;;;-3.95;79.73;100020.75;5111904;27;20047;-82
2021/04/15 05:05:47;;;;;;;5.53;3.00;;;;;;;-3.85;80.03;100030.00;5112961;27;20472;-82
2021/04/15 05:08:21;;;;;;;5.43;3.10;;;;;;;-3.84;79.99;100033.53;5103595;28;20105;-82
2021/04/15 05:10:51;;;;;;;12.23;3.27;;;;;;;-3.62;79.79;100044.84;5098331;28;20052;-81
2021/04/15 05:13:21;;;;;;;9.50;3.75;;;;;;;-3.67;79.96;100016.78;5112910;28;20054;-81
2021/04/15 05:15:47;;;;;;;4.97;3.40;;;;;;;-3.56;80.14;100036.59;5106226;28;20052;-81
2021/04/15 05:18:17;;;;;;;8.43;4.10;;;;;;;-3.65;80.32;100029.06;5113764;28;20051;-82
2021/04/15 05:20:44;;;;;;;8.35;3.45;;;;;;;-3.67;80.68;100024.75;5113501;28;20503;-82
2021/04/15 05:23:20;;;;;;;7.23;4.00;;;;;;;-3.66;80.65;100027.31;5112066;28;20040;-82
2021/04/15 05:26:02;;;;;;;9.50;4.43;;;;;;;-3.46;80.38;100045.00;5108272;28;20048;-81
2021/04/15 05:28:34;;;;;;;6.33;4.27;;;;;;;-3.43;80.49;100049.31;5111082;28;20044;-82
2021/04/15 05:31:05;;;;;;;7.93;3.63;;;;;;;-3.32;79.72;100046.13;5113620;28;20503;-82
2021/04/15 05:33:33;;;;;;;5.50;3.27;;;;;;;-3.29;79.66;100052.16;5111526;28;20086;-81
2021/04/15 05:36:05;;;;;;;6.70;3.77;;;;;;;-3.18;79.28;100054.28;5101885;28;20056;-81
2021/04/15 05:38:37;;;;;;;9.83;3.83;;;;;;;-2.91;79.07;100052.03;5104698;28;20104;-81
2021/04/15 05:41:07;;;;;;;5.93;3.93;;;;;;;-2.51;78.52;100049.13;5103787;28;20048;-81
2021/04/15 05:43:43;;;;;;;6.53;3.97;;;;;;;-1.87;76.89;100047.47;5095444;28;20048;-81
2021/04/15 05:46:12;;;;;;;7.60;4.43;;;;;;;-1.57;75.75;100041.41;5111890;28;20123;-81
2021/04/15 05:48:41;;;;;;;6.00;3.23;;;;;;;-1.10;73.29;100045.84;5111987;28;20051;-78
2021/04/15 05:51:16;;;;;;;6.32;4.22;;;;;;;-0.59;72.09;100040.19;5109400;28;20074;-78
2021/04/15 05:53:51;;;;;;;7.83;4.03;;;;;;;-0.33;71.03;100037.75;5106602;27;20126;-81
2021/04/15 05:56:23;;;;;;;7.43;4.40;;;;;;;0.27;69.80;100043.81;5111164;28;20059;-81
2021/04/15 05:59:12;;;;;;;6.93;4.13;;;;;;;0.60;68.17;100026.56;5104409;28;20142;-81
2021/04/15 06:01:46;;;;;;;10.00;5.70;;;;;;;1.01;66.91;100037.22;5110174;28;20056;-81
2021/04/15 06:04:24;;;;;;;10.60;4.97;;;;;;;1.35;65.39;100026.91;5111256;28;20043;-82
2021/04/15 06:06:51;;;;;;;7.63;3.47;;;;;;;1.36;65.42;100019.75;5091503;28;20036;-81
2021/04/15 06:09:21;;;;;;;8.17;4.70;;;;;;;1.56;64.28;100018.34;5109084;28;20044;-83
2021/04/15 06:12:02;;;;;;;6.50;4.13;;;;;;;2.11;63.55;100040.44;5107007;28;20471;-82
2021/04/15 06:14:37;;;;;;;10.07;5.47;;;;;;;2.01;63.40;100029.50;5099674;28;20048;-81
2021/04/15 06:17:21;;;;;;;9.33;4.90;;;;;;;2.33;62.42;100031.69;5110847;28;20046;-83
2021/04/15 06:19:51;;;;;;;9.57;4.97;;;;;;;2.11;63.62;100022.50;5105896;28;20069;-82
2021/04/15 06:22:33;;;;;;;9.30;4.77;;;;;;;2.73;63.12;100042.22;5095968;28;20404;-82
2021/04/15 06:25:05;;;;;;;10.20;5.20;;;;;;;2.76;62.20;100027.72;5100923;28;20105;-82
2021/04/15 06:27:34;;;;;;;11.50;5.80;;;;;;;2.86;62.42;100041.28;5109509;27;20055;-81
2021/04/15 06:30:05;;;;;;;9.77;5.13;;;;;;;3.16;61.77;100049.75;5101905;28;20043;-80
2021/04/15 06:32:49;;;;;;;8.70;4.60;;;;;;;3.43;61.39;100056.69;5093829;28;20044;-79
2021/04/15 06:35:23;;;;;;;9.55;5.35;;;;;;;3.53;61.42;100040.72;5096866;28;20132;-79
2021/04/15 06:37:56;;;;;;;6.18;4.25;;;;;;;3.39;61.97;100036.41;5109406;28;20051;-80
2021/04/15 06:40:53;;;;;;;6.95;4.45;;;;;;;3.48;61.07;100051.81;5110164;28;20071;-80
2021/04/15 06:43:55;;;;;;;7.88;4.18;;;;;;;3.57;61.17;100061.03;5104000;28;20130;-81
2021/04/15 06:46:49;;;;;;;5.85;4.45;;;;;;;4.13;59.57;100051.31;5074548;28;20047;-79
2021/04/15 06:49:36;;;;;;;7.00;4.45;;;;;;;4.29;59.16;100054.50;5110520;28;20047;-79
2021/04/15 06:52:34;;;;;;;12.55;4.80;;;;;;;3.88;58.06;100037.09;5104860;28;20100;-79
2021/04/15 06:55:32;;;;;;;10.75;4.40;;;;;;;3.87;58.96;100044.34;5103146;28;20047;-81
2021/04/15 07:15:11;;;;;;;6.97;4.03;;;;;;;4.82;56.23;100043.06;5101268;28;20051;-80
2021/04/15 07:18:05;;;;;;;12.25;3.92;;;;;;;4.52;58.26;100046.41;5105981;28;20381;-81
2021/04/15 07:20:51;;;;;;;6.65;4.25;;;;;;;4.76;57.97;100036.31;5113721;28;20116;-81
2021/04/15 07:23:41;;;;;;;5.22;3.88;;;;;;;4.86;57.14;100049.03;5103458;28;20519;-81
2021/04/15 07:26:35;;;;;;;5.80;3.50;;;;;;;4.59;57.80;100034.16;5075648;28;20044;-80
2021/04/15 07:29:36;;;;;;;10.82;3.58;;;;;;;4.37;56.33;100038.59;5092809;28;20044;-81
2021/04/15 07:32:41;;;;;;;6.30;3.35;;;;;;;4.40;56.99;100029.41;5102495;28;20058;-79
2021/04/15 07:35:27;;;;;;;5.88;4.00;;;;;;;4.02;58.52;100053.03;5114405;28;20097;-82
2021/04/15 07:38:36;;;;;;;4.28;3.10;;;;;;;4.46;57.92;100050.47;5113403;28;20056;-83
2021/04/15 07:41:27;;;;;;;6.10;3.85;;;;;;;3.94;58.86;100050.06;5106475;28;20139;-83
2021/04/15 08:15:41;;;;;;;6.03;3.10;;;;;;;5.07;56.21;100043.69;5080639;28;20109;-83
2021/04/15 08:22:23;;;;;;;;;;;;;;;;;;;;;
2021/04/15 08:33:00;;;;;;;6.97;2.97;;;;;;;5.89;56.11;100055.69;4928122;29;20087;-82
2021/04/15 09:06:14;;;;;;;11.43;3.33;;;;;;;4.83;55.85;100022.34;5067313;28;20049;-82
2021/04/15 09:09:15;;;;;;;8.45;3.65;;;;;;;4.95;55.94;100034.78;5055350;28;20408;-82
2021/04/15 09:12:22;;;;;;;5.50;3.55;;;;;;;4.90;56.52;100037.88;5031767;28;20091;-82
2021/04/15 09:19:04;;;;;;;9.27;3.60;;;;;;;5.27;55.59;100040.19;4961595;28;20085;-82
2021/04/15 09:40:20;;;;;;;9.75;3.17;;;;;;;5.64;52.49;100033.50;5068125;28;20053;-82
2021/04/15 09:43:19;;;;;;;;;;;;;;;;;;;;;
2021/04/15 09:46:28;;;;;;;4.32;2.65;;;;;;;5.60;50.15;100016.75;5053962;28;20049;-81
2021/04/15 09:49:19;;;;;;;5.50;2.80;;;;;;;5.78;49.59;100022.38;4973739;28;20096;-82
2021/04/15 09:56:13;;;;;;;6.28;2.15;;;;;;;5.81;48.55;100034.72;4945324;29;20109;-83
2021/04/15 09:58:55;;;;;;;5.82;2.30;;;;;;;6.03;48.10;100012.16;4934672;29;20078;-82
2021/04/15 10:01:24;;;;;;;6.68;3.00;;;;;;;6.21;47.84;100025.88;4935026;29;20495;-82
2021/04/15 10:04:03;;;;;;;5.03;2.63;;;;;;;6.21;48.31;100006.97;4934817;29;20051;-82
2021/04/15 10:06:34;;;;;;;4.32;2.20;;;;;;;6.21;46.32;100020.50;4986108;28;20050;-82
2021/04/15 10:09:31;;;;;;;2.90;2.15;;;;;;;6.07;46.81;100000.13;4975356;28;20043;-82
2021/04/15 10:12:27;;;;;;;4.72;2.47;;;;;;;6.15;47.57;100000.28;4972870;28;20061;-82
2021/04/15 10:15:21;;;;;;;7.75;2.83;;;;;;;6.34;48.73;100009.47;4972746;28;20129;-82
2021/04/15 10:32:03;;;;;;;2.88;1.95;;;;;;;6.59;45.62;100015.34;5052108;28;20086;-82
2021/04/15 10:34:48;;;;;;;2.88;2.05;;;;;;;5.98;47.50;100004.47;5053755;28;20080;-82
2021/04/15 10:37:25;;;;;;;7.97;2.75;;;;;;;6.22;48.22;100015.94;5053488;28;20049;-82
2021/04/15 10:40:08;;;;;;;2.88;2.40;;;;;;;5.91;50.58;100018.63;5053363;28;20057;-82
2021/04/15 10:43:05;;;;;;;9.45;3.00;;;;;;;5.93;50.52;100022.03;5053261;28;20057;-81
2021/04/15 10:46:12;;;;;;;7.20;2.70;;;;;;;5.75;50.97;100029.88;5052231;28;20049;-82
2021/04/15 10:48:55;;;;;;;7.30;2.92;;;;;;;5.65;50.47;100025.28;5010438;28;20095;-82
2021/04/15 10:51:33;;;;;;;5.60;2.95;;;;;;;5.28;49.86;100023.03;5051906;28;20067;-83
2021/04/15 10:54:05;;;;;;;2.38;1.88;;;;;;;5.00;52.84;100043.38;5050832;28;20087;-82
2021/04/15 10:56:43;;;;;;;5.38;2.50;;;;;;;5.16;53.52;100037.53;5068701;28;20059;-82
2021/04/15 10:59:17;;;;;;;2.75;2.40;;;;;;;5.28;53.49;100023.03;5071024;28;20481;-82
2021/04/15 11:02:08;;;;;;;5.85;2.38;;;;;;;5.41;53.90;100008.50;5070430;28;20044;-82
2021/04/15 11:04:38;;;;;;;2.58;1.98;;;;;;;5.62;55.43;100000.41;5060690;28;20527;-82
2021/04/15 11:07:09;;;;;;;6.22;2.95;;;;;;;6.02;52.75;100005.03;5086227;28;20403;-82
2021/04/15 11:09:38;;;;;;;2.80;2.38;;;;;;;6.10;52.19;99996.31;5070504;28;20480;-82
2021/04/15 11:12:22;;;;;;;2.42;2.08;;;;;;;6.12;52.39;99988.91;5068810;28;20048;-82
2021/04/15 11:15:10;;;;;;;3.40;1.90;;;;;;;6.20;54.94;99989.94;5059539;28;20083;-83
2021/04/15 11:17:44;;;;;;;3.63;2.05;;;;;;;6.07;54.08;99973.13;5070181;28;20044;-82
2021/04/15 11:20:30;;;;;;;2.95;1.98;;;;;;;6.03;53.54;99968.97;5069841;28;20530;-82
2021/04/15 11:23:02;;;;;;;4.22;2.20;;;;;;;6.34;52.67;99966.25;5067735;28;20090;-83
2021/04/15 11:25:33;;;;;;;4.93;2.83;;;;;;;6.67;52.00;99974.97;5067204;28;20068;-82
2021/04/15 11:28:26;;;;;;;2.88;2.05;;;;;;;7.36;51.91;99968.59;5063521;28;20052;-83
2021/04/15 11:31:31;;;;;;;2.30;2.08;;;;;;;7.64;48.63;99965.97;5050679;28;20496;-83
2021/04/15 11:34:15;;;;;;;2.25;1.85;;;;;;;7.94;45.99;99964.88;5014320;28;20049;-83
2021/04/15 11:36:56;;;;;;;2.42;1.88;;;;;;;7.83;44.83;99953.38;5051127;28;20412;-83
2021/04/15 11:39:28;;;;;;;3.30;1.80;;;;;;;7.98;45.84;99955.44;5068451;28;20045;-83
2021/04/15 11:42:05;;;;;;;3.53;2.00;;;;;;;8.55;43.53;99950.91;5071905;28;20057;-83
2021/04/15 11:44:37;;;;;;;2.72;2.05;;;;;;;8.41;42.87;99947.69;5076381;28;20159;-83
2021/04/15 11:47:13;;;;;;;3.55;2.30;;;;;;;7.98;43.68;99947.34;5076519;28;20448;-82
2021/04/15 11:49:41;;;;;;;2.70;1.92;;;;;;;8.25;43.41;99961.03;5076032;28;20101;-81
2021/04/15 11:52:27;;;;;;;2.80;2.33;;;;;;;8.09;43.29;99953.56;5075699;28;20139;-81
2021/04/15 11:55:28;;;;;;;2.67;1.95;;;;;;;8.05;43.87;99954.84;5068094;28;20090;-81
2021/04/15 11:58:02;;;;;;;4.28;2.10;;;;;;;8.21;43.48;99943.38;5051779;28;20549;-82
2021/04/15 12:00:30;;;;;;;3.35;1.63;;;;;;;8.39;43.74;99927.19;5080672;28;20518;-81
2021/04/15 12:03:13;;;;;;;4.43;2.15;;;;;;;8.26;41.53;99931.06;5074543;28;20419;-82
2021/04/15 12:05:42;;;;;;;2.38;1.92;;;;;;;8.53;39.56;99936.66;5073741;28;20041;-82
2021/04/15 12:08:19;;;;;;;2.80;1.98;;;;;;;9.16;39.56;99935.75;5073335;28;20484;-82
2021/04/15 12:10:50;;;;;;;4.15;2.42;;;;;;;9.69;40.63;99921.19;5073262;28;20107;-82
2021/04/15 12:13:22;;;;;;;7.05;2.30;;;;;;;9.33;37.46;99934.00;5074434;28;20106;-82
2021/04/15 12:15:55;;;;;;;4.43;2.30;;;;;;;9.34;40.41;99936.56;5073535;28;20044;-82
2021/04/15 12:18:29;;;;;;;1.90;1.65;;;;;;;8.38;39.53;99947.97;5073950;28;20049;-82
2021/04/15 12:21:04;;;;;;;1.92;1.67;;;;;;;7.46;40.42;99910.91;5073756;28;20052;-81
2021/04/15 12:23:42;;;;;;;4.45;1.90;;;;;;;7.44;42.26;99948.94;5067111;28;20052;-82
2021/04/15 12:26:24;;;;;;;5.32;1.77;;;;;;;7.14;43.38;99952.69;5067434;28;20047;-82
2021/04/15 12:29:09;;;;;;;3.05;2.22;;;;;;;7.03;46.75;99959.06;5074019;28;20556;-82
2021/04/15 12:31:45;;;;;;;6.63;2.40;;;;;;;6.66;49.82;99957.06;5074122;28;20048;-83
2021/04/15 12:34:25;;;;;;;4.35;2.28;;;;;;;6.62;51.10;99966.44;5073791;28;20060;-81
2021/04/15 12:36:58;;;;;;;6.15;2.40;;;;;;;6.23;53.52;99942.03;5073790;28;20106;-81
2021/04/15 12:39:44;;;;;;;3.70;2.50;;;;;;;6.52;55.57;99948.38;5072481;28;20068;-82
2021/04/15 12:42:25;;;;;;;3.83;2.50;;;;;;;6.66;52.26;99951.66;5073620;28;20044;-81
2021/04/15 12:44:58;;;;;;;3.22;2.63;;;;;;;6.67;53.99;99946.13;5073165;28;20055;-81
2021/04/15 12:47:26;;;;;;;5.38;2.75;;;;;;;6.94;53.74;99933.75;5073469;28;20060;-81
2021/04/15 12:49:52;;;;;;;2.65;2.30;;;;;;;7.04;52.69;99939.16;5073907;28;20052;-81
2021/04/15 12:52:24;;;;;;;4.20;2.53;;;;;;;7.44;51.33;99935.41;5073542;28;20405;-82
2021/04/15 12:54:52;;;;;;;7.20;2.67;;;;;;;7.62;51.91;99909.28;5070964;28;20504;-82
2021/04/15 12:57:18;;;;;;;4.35;2.72;;;;;;;7.63;50.09;99915.53;5073657;28;20044;-82
2021/04/15 12:59:47;;;;;;;4.45;2.65;;;;;;;7.87;50.70;99919.59;5073452;28;20151;-82
2021/04/15 13:02:19;;;;;;;4.70;2.50;;;;;;;8.04;51.76;99899.84;5073635;28;20048;-79
2021/04/15 13:04:50;;;;;;;4.82;2.67;;;;;;;8.30;49.73;99920.81;5074549;28;20068;-82
2021/04/15 13:07:30;;;;;;;4.53;2.35;;;;;;;8.71;49.48;99918.56;5075104;28;20087;-82
2021/04/15 13:10:29;;;;;;;6.25;2.60;;;;;;;9.20;48.80;99915.44;5075252;28;20048;-82
2021/04/15 13:13:01;;;;;;;3.83;2.20;;;;;;;9.23;47.25;99906.09;5061698;28;20408;-83
2021/04/15 13:15:43;;;;;;;5.15;2.50;;;;;;;9.42;44.61;99888.78;5071775;28;20654;-81
2021/04/15 13:18:41;;;;;;;5.22;2.50;;;;;;;9.64;44.38;99906.41;5073057;28;20094;-83
2021/04/15 13:21:27;;;;;;;6.32;2.03;;;;;;;10.09;44.76;99894.41;5073130;28;20110;-81
2021/04/15 13:24:20;;;;;;;6.03;2.20;;;;;;;10.20;43.34;99891.38;5074059;28;20055;-82
2021/04/15 13:26:47;;;;;;;6.45;2.55;;;;;;;10.46;46.05;99879.56;5073762;28;20052;-82
2021/04/15 13:29:22;;;;;;;4.70;2.22;;;;;;;10.69;43.80;99896.13;5070956;28;20048;-82
2021/04/15 13:32:23;;;;;;;3.05;2.40;;;;;;;10.38;41.94;99885.84;5053039;28;20049;-81
2021/04/15 13:35:03;;;;;;;3.20;2.17;;;;;;;10.44;40.75;99884.34;5052750;28;20048;-81
2021/04/15 13:37:45;;;;;;;3.55;1.95;;;;;;;10.31;41.37;99886.66;5052658;28;20045;-83
2021/04/15 13:40:28;;;;;;;3.85;2.35;;;;;;;9.76;40.23;99868.97;5052847;28;20492;-81
2021/04/15 13:42:56;;;;;;;3.08;2.20;;;;;;;9.33;40.54;99888.75;5052586;28;20476;-81
2021/04/15 13:45:41;;;;;;;4.78;1.95;;;;;;;8.76;42.39;99893.69;5052642;28;20053;-83
2021/04/15 13:48:10;;;;;;;3.55;2.00;;;;;;;8.62;42.71;99893.22;5052442;28;20496;-82
2021/04/15 13:51:17;;;;;;;2.30;1.80;;;;;;;8.49;41.77;99901.75;5052046;28;20492;-83
2021/04/15 13:53:57;;;;;;;5.20;2.20;;;;;;;7.80;43.34;99897.69;5052817;28;20098;-81
2021/04/15 13:56:34;;;;;;;7.95;2.30;;;;;;;7.82;41.83;99892.13;5052102;28;20053;-81
2021/04/15 13:59:02;;;;;;;5.00;2.40;;;;;;;7.70;39.95;99877.94;5052391;28;20651;-82
2021/04/15 14:01:36;;;;;;;4.25;2.67;;;;;;;7.58;43.65;99877.25;5071535;28;20036;-83
2021/04/15 14:04:02;;;;;;;6.13;2.20;;;;;;;7.70;43.64;99895.00;5072141;28;20420;-82
2021/04/15 14:06:30;;;;;;;4.25;1.92;;;;;;;7.64;44.10;99897.47;5053879;28;20087;-82
2021/04/15 14:09:20;;;;;;;5.07;2.70;;;;;;;7.39;43.59;99903.38;5071192;28;20048;-81
2021/04/15 14:12:16;;;;;;;3.20;2.42;;;;;;;7.08;42.96;99908.13;5071550;28;20070;-82
2021/04/15 14:14:48;;;;;;;5.78;2.30;;;;;;;7.04;45.33;99880.50;5071775;28;20485;-82
2021/04/15 14:17:28;;;;;;;7.80;2.83;;;;;;;7.44;41.95;99873.19;5072046;28;20087;-82
2021/04/15 14:20:08;;;;;;;3.35;2.13;;;;;;;7.18;41.78;99872.94;5071884;28;20568;-82
2021/04/15 14:22:36;;;;;;;;;;;;;;;7.65;42.14;99858.56;5072572;28;20044;-82
2021/04/15 14:25:15;;;;;;;5.03;2.58;;;;;;;7.97;41.17;99858.97;5072092;28;19921;-83
2021/04/15 14:27:42;;;;;;;3.92;2.78;;;;;;;8.18;40.39;99867.84;5070563;28;20152;-82
2021/04/15 14:30:12;;;;;;;8.85;3.13;;;;;;;8.52;39.90;99861.78;5072321;28;20056;-82
2021/04/15 14:32:43;;;;;;;5.38;2.80;;;;;;;8.29;39.92;99838.66;5071456;28;20125;-82